Latest Observation

65 Stations

10 Minute Data
as of 5/4/26 7:45 PM PDT
Station Date Time Temp (°F) RH (%) Dew Pt (°F) Wind Spd (mph) Wind Dir (°) Wind Gust (mph) Wind Gst Dir (°) Latest Rain (In) Soil Moist (%) Soil Temp (°F) Daily Rain (In) Daily Min Temp (°F) Daily Max Temp (°F) Daily Max Wind (mph)
Hobart Mills 5/4/26 1940 36.9   6.9 99   4 36.6   5.7 3.4   3.0 E | 83 4.3   2.6 E | 82 0.00 - 32.0   0.0 0.03 34.4   3.1 45.9   15.6 6.0   7.2
Prosser Dam 5/4/26 1940 37.6   8.7 92   15 35.4   4.0 7.7   4.4 E | 94 12.0   5.0 E | 87 0.00 20.7   0.1 47.8   1.4 0.42 37.2   2.0 46.8   17.4 14.3   17.3
West Incline Village 5/4/26 1940 32.1   8.2 99   4 31.8   7.3 0.0   2.0 N | 0 0.0   7.2 NNE | 21 0.01 36.2   5.6 44.0   0.4 0.50 31.9   5.3 41.3   17.2 10.6   18.1
Incline Village (Fairview Blvd) 5/4/26 1940 32.3   9.5 99   7 32.0   7.6 0.0   0.0 N | 0 0.0   0.0 N | 352 0.00 31.0   5.0 51.0   0.9 0.49 32.1   6.9 42.0   18.2 6.3   11.8
Incline Village (Diamond Peak) 5/4/26 1940 31.2   10.3 98   29 30.8   1.4 0.0   6.0 N | 0 0.0   6.3 NE | 53 0.00 8.2   0.2 43.2   2.0 0.01 31.2   5.2 39.6   15.2 6.0   13.5
Incline Village (Mill Creek) 5/4/26 1940 32.6   10.0 97   8 31.9   7.7 0.0   1.3 N | 0 0.0   2.6 SE | 127 0.00 9.7   0.0 46.0   0.1 0.69 32.3   7.8 43.6   16.0 5.2   16.5
Incline Village (Lakeshore Blvd) 5/4/26 1940 33.9   10.6 99   12 33.6   7.1 1.6   0.9 NE | 41 5.0   3.2 NE | 43 0.01 41.8   7.1 46.8   7.0 0.80 33.4   8.4 45.9   17.1 7.7   16.0
Glenbrook 5/4/26 1940 32.6   11.4 95   8 31.4   9.1 0.0   0.3 N | 0 0.0   2.1 E | 92 0.00 44.3   0.0 44.8   0.4 0.65 32.5   9.8 45.3   14.9 7.6   14.2
Zephyr Cove 5/4/26 1940 34.3   9.0 96   14 33.4   4.9 0.0   0.0 N | 0 0.0   0.0 SSE | 151 0.00 - 34.3   0.0 0.00 34.2   7.9 44.1   16.0 4.2   1.9
Kingsbury Grade 5/4/26 1940 33.0   8.5 97   6 32.2   6.9 0.4   0.3 SW | 232 2.6   1.7 SSW | 213 0.01 7.0   1.4 50.2   4.3 0.16 32.8   7.3 43.1   14.0 7.6   16.3
South Daggett Pass (Ridge) 5/4/26 1940 31.2   7.2 100   8 31.1   5.1 4.1   1.8 WNW | 291 9.2   0.9 WNW | 285 0.00 6.4   0.1 47.2   1.5 0.14 31.0   7.1 40.1   13.0 24.7   0.9
Palomino Valley 5/4/26 1940 49.7   7.5 82   34 44.3   6.6 2.3   6.7 ESE | 112 9.8   2.6 ENE | 78 0.00 6.7   0.1 64.4   0.2 0.24 47.4   2.5 64.6   9.6 31.6   14.3
East Cold Springs 5/4/26 1940 42.0   6.6 86   17 38.0   0.6 14.7   4.2 WSW | 247 21.4   7.2 SW | 228 0.01 1.6   0.1 55.1   0.9 0.14 40.8   7.3 59.1   9.0 25.6   12.8
Peavine 5/4/26 1940 45.8   2.9 72   10 37.4   1.0 3.4   3.3 W | 281 12.5   2.5 SW | 228 0.00 - 53.4   0.0 0.55 40.2   4.3 54.2   9.7 33.7   19.5
West Verdi Peak 5/4/26 1940 36.3   7.9 92   14 34.3   3.7 5.4   4.7 SSW | 193 20.2   17.4 SE | 126 0.01 16.5   0.2 50.6   1.1 0.52 35.4   5.4 49.3   15.7 20.2   6.6
West Verdi 5/4/26 1940 42.3   7.8 86   12 38.4   3.6 3.1   0.9 N | 6 7.2   2.4 N | 354 0.00 8.4   0.6 58.7   2.2 0.38 42.0   4.7 55.5   13.1 32.8   4.0
South Verdi 5/4/26 1940 42.0   7.8 77   12 35.2   3.4 27.3   16.1 WSW | 248 35.6   19.5 WSW | 248 0.00 16.6   0.2 54.0   5.2 0.29 41.3   4.5 49.7   16.2 41.5   17.5
Northwest Reno 5/4/26 1940 45.4   7.8 75   20 38.0   0.6 24.8   10.2 W | 279 35.2   17.5 W | 275 0.00 23.5   0.5 61.1   2.0 0.22 43.7   5.0 55.4   14.2 49.6   10.5
North Lawton 5/4/26 1940 42.6   8.7 82   21 37.4   0.7 14.2   6.0 WSW | 258 23.8   11.8 WSW | 252 0.00 - 39.1   0.0 0.30 42.3   5.5 54.8   16.1 30.9   9.3
West Reno (Mogul) 5/4/26 1940 46.2   6.5 68   9 36.2   2.8 10.1   7.0 WSW | 255 22.8   16.8 WSW | 238 0.00 38.5   0.1 60.4   0.4 0.24 44.0   4.1 58.4   10.4 28.9   20.7
Caughlin (Hunter Lake Trail) 9/16/25 0800 59.7   3.5 41   11 35.9   2.7 0.0   0.0 N | 0 0.0   0.0 ENE | 66 0.00 15.7   0.0 69.8   0.5 0.00 55.7   3.2 67.7   9.1 9.4   0.9
ArrowCreek 5/4/26 1940 46.1   9.0 90   43 43.4   7.8 5.2   4.4 S | 178 9.2   8.3 S | 182 0.00 - 32.0   0.0 0.39 45.5   3.5 55.7   13.8 30.3   26.7
Tracy 5/4/26 1940 50.1   10.1 84   40 45.5   7.3 10.1   0.2 WSW | 242 13.0   2.4 WSW | 249 0.02 7.8   0.2 62.6   0.9 0.33 49.9   1.2 62.6   11.2 22.6   25.2
Virginia Highlands 5/4/26 1940 42.1   7.2 92   31 40.0   3.7 2.1   3.9 WNW | 299 7.1   4.0 W | 280 0.00 9.0   1.8 56.4   0.4 0.29 41.8   5.3 52.0   13.2 20.5   20.6
Virginia City 5/4/26 1940 42.8   7.3 85   36 38.6   6.8 2.9   10.3 ESE | 114 6.8   13.2 SE | 129 0.00 8.2   0.2 53.6   2.4 0.25 42.0   4.9 49.5   14.3 26.1   20.6
Six Mile Canyon 9/9/25 0630 60.2   9.6 37   6 33.7   4.8 4.1   2.5 W | 277 6.1   2.9 WNW | 286 0.00 12.5   0.0 75.5   0.7 0.00 57.9   7.6 64.4   1.9 7.0   3.9
Mt Rose Highway 4/30/26 0510 40.8   4.7 47   13 22.3   1.3 2.3   0.2 WSW | 243 4.8   2.1 WSW | 246 0.00 24.1   0.3 43.0   0.8 0.00 40.5   4.7 43.0   5.3 7.7   0.4
Pleasant Valley 5/4/26 1940 46.0   8.0 84   28 41.5   2.8 2.3   1.8 NNW | 336 4.5   3.6 N | 7 0.00 2.8   0.0 60.1   2.9 0.28 43.3   2.5 53.2   17.9 19.9   24.8
New Washoe City 5/4/26 1940 44.9   6.5 87   22 41.4   1.4 4.9   2.4 NE | 52 8.6   4.6 ENE | 63 0.00 4.5   0.1 57.4   1.0 0.30 42.4   2.6 52.1   16.0 14.5   22.1
Franktown Creek 5/4/26 1940 45.4   5.1 92   14 43.1   0.7 3.9   3.5 N | 358 9.9   6.1 NW | 320 0.00 10.9   0.2 54.5   1.5 0.44 42.6   2.9 52.1   15.1 13.7   14.9
Musgrove Creek 5/4/26 1940 43.3   6.8 76   16 36.4   0.6 4.3   2.8 SSW | 198 12.8   7.6 SSW | 206 0.00 44.6   0.9 52.5   0.4 0.48 41.3   1.8 51.9   12.2 25.5   1.1
East Carson 11/23/24 0110 28.6   28.4 - - 4.7   11.0 SW | 220 14.7   10.1 SW | 219 0.02 - 50.9   0.1 0.02 -25.9   79.1 42.9   14.6 16.0   10.7
Kings Canyon 5/4/26 1940 45.0   6.2 86   20 41.0   0.7 4.8   2.7 N | 357 10.9   6.3 N | 349 0.00 15.1   0.1 55.4   2.7 0.37 41.8   3.3 54.3   11.0 14.2   14.9
Carson City (Voltaire Canyon) 5/4/26 1940 44.3   8.8 77   16 37.5   2.2 12.7   5.7 W | 265 20.4   12.0 WSW | 247 0.00 2.8   0.0 61.4   0.9 0.00 42.8   6.4 54.4   12.8 24.3   40.5
Jacks Valley 5/4/26 1940 43.8   8.6 74   19 36.0   0.6 7.9   2.4 W | 266 19.4   8.7 NW | 321 0.00 9.6   0.1 58.6   5.0 0.15 42.5   3.7 53.6   13.5 23.4   12.2
Genoa 5/4/26 1940 47.3   6.6 77   14 40.6   1.1 2.1   1.8 SSW | 206 8.8   6.3 NNW | 332 0.00 5.4   0.2 55.2   4.9 0.05 45.5   1.4 56.2   11.9 20.0   0.4
South Genoa (Walleys Hot Springs) 5/4/26 1940 51.8   3.3 57   3 36.9   4.2 12.9   10.5 WSW | 238 28.4   21.1 WSW | 253 0.00 14.0   0.4 61.3   2.2 0.05 44.0   2.2 57.0   10.3 31.7   5.3
SW Gardnerville (HWY 88) 5/4/26 1940 46.9   5.3 75   6 39.4   2.8 1.2   3.3 N | 2 3.7   2.6 NNW | 347 0.00 3.3   0.1 55.0   2.3 0.00 42.0   2.0 56.0   9.1 28.3   19.8
Sheridan 5/4/26 1940 47.7   4.6 80   11 41.8   0.6 5.2   4.4 ESE | 123 7.7   4.3 ESE | 104 0.00 2.3   0.1 58.1   1.8 0.04 44.2   2.0 57.4   9.2 16.0   22.6
Ruhenstroth 5/4/26 1940 45.7   6.3 77   10 38.7   2.4 2.7   0.6 N | 11 10.7   6.2 NNW | 333 0.00 12.6   0.3 57.2   1.6 0.00 45.5   0.0 54.4   9.7 29.4   15.2
Double Spring 5/4/26 1940 43.9   4.2 82   5 38.7   2.5 6.8   3.7 NNE | 15 11.7   5.8 NNE | 13 0.00 28.5   0.0 54.0   1.8 0.16 39.0   1.8 49.8   8.4 23.0   9.6
North Topaz Lake 5/4/26 1940 46.8   3.8 69   2 37.3   2.7 4.1   4.1 W | 281 11.0   11.0 W | 276 0.00 9.1   0.1 57.4   1.2 0.07 42.3   3.9 52.8   8.2 25.0   7.3
Wild Oat Mountain 5/4/26 1940 44.0   4.9 78   14 37.6   0.4 4.2   1.0 NW | 320 6.8   2.1 NNW | 346 0.00 16.5   0.1 56.7   2.1 0.10 40.1   5.1 52.3   6.5 23.5   13.0
Smith Valley 5/4/26 1940 52.0   3.4 57   3 37.3   2.0 3.5   0.7 W | 268 9.7   3.0 SSW | 195 0.00 5.8   0.1 60.2   1.5 0.17 45.2   2.2 62.0   5.8 25.7   12.4
Pine Grove Mountain 5/4/26 1940 34.6   5.7 87   23 31.2   2.0 7.8   3.2 WSW | 242 11.3   3.8 WSW | 247 0.01 16.6   2.1 47.5   2.7 0.10 31.4   3.4 43.5   9.9 22.6   19.3
Paradise Hill 5/4/26 1940 66.1   2.6 33   12 36.5   8.4 8.5   1.6 SE | 129 12.0   3.2 SE | 128 0.00 8.0   0.1 61.4   1.1 0.00 40.2   5.4 75.8   0.5 34.6   4.0
Winnemucca 5/4/26 1940 62.4   7.3 39   19 37.3   9.8 14.3   12.2 SSE | 164 21.9   18.3 S | 178 0.00 5.9   0.0 60.5   0.8 0.00 44.4   8.1 75.1   0.4 30.8   7.4
NE Elko 5/4/26 1940 61.8   2.9 38   17 36.1   12.0 5.9   1.8 ENE | 74 16.5   10.4 NW | 308 0.00 12.5   0.0 63.9   1.5 0.00 33.5   6.9 74.0   2.3 35.0   5.8
North Elko 5/4/26 1940 58.3   7.5 42   25 35.3   15.5 8.8   5.3 S | 176 12.7   8.2 S | 182 0.00 28.5   0.0 59.2   1.5 0.00 45.5   3.9 71.8   1.8 38.4   19.3
South Elko 5/4/26 1940 56.7   11.6 47   27 36.7   11.4 3.8   2.0 S | 182 10.2   7.7 SSW | 206 0.00 18.8   0.1 60.8   1.5 0.00 49.8   0.1 125.7 30.9   15.4
Lamoille 1/28/26 1720 33.2   0.5 65   17 22.8   6.3 5.8   1.5 SSE | 166 7.7   1.9 SE | 139 0.00 12.2   0.0 33.4   0.1 0.02 23.5   2.0 36.5   5.9 25.6   17.4
Reid Gardner Sub 5/4/26 1940 75.0   11.3 20   7 30.7   1.1 9.8   0.5 SSW | 196 15.3   1.1 SSW | 200 0.00 25.0   0.4 74.8   1.0 0.00 64.2   15.9 80.6   12.4 26.2   3.8
Corn Creek 5/4/26 1940 67.0   11.8 21   5 26.3   3.8 14.7   6.5 ENE | 70 22.5   6.2 E | 81 0.00 4.0   0.1 76.3   2.6 0.00 59.2   2.6 75.7   7.9 41.1   2.9
Lucky Strike 5/4/26 1940 57.3   8.4 24   2 20.4   4.9 7.2   2.7 NW | 315 11.4   4.0 NNW | 327 0.00 4.5   0.0 71.8   0.7 0.00 51.0   5.7 64.9   5.3 32.2   8.9
Lower Angel Peak 5/4/26 1940 49.8   9.5 30   1 19.7   7.1 2.6   4.1 SW | 220 6.7   8.7 NW | 307 0.00 10.2   0.2 57.6   0.5 0.00 41.5   4.4 59.9   5.6 25.1   6.5
Angel Peak 5/4/26 1940 39.1   8.3 34   4 13.2   10.2 0.8   22.3 SSW | 206 3.5   36.0 SSW | 198 0.00 3.6   0.0 55.8   1.8 0.00 38.3   6.0 49.0   6.5 34.5   15.8
Upper Kyle Canyon 5/4/26 1940 41.4   11.5 38   5 18.0   7.1 3.2   1.6 NW | 307 14.3   7.7 WSW | 258 0.00 13.7   0.1 55.7   1.9 0.00 36.7   5.4 51.9   6.0 26.7   3.7
Mt Charleston 5/4/26 1940 41.9   11.3 43   8 20.9   4.9 5.1   2.5 WNW | 289 14.2   5.2 W | 281 0.00 18.4   0.0 48.6   0.1 0.00 39.3   4.9 51.4   7.0 25.3   1.2
Mid Kyle Canyon 5/4/26 1940 48.4   11.1 34   5 21.4   5.6 15.0   4.7 W | 260 24.8   4.7 WSW | 258 0.00 7.1   0.0 59.2   0.2 0.00 42.5   4.8 59.1   6.8 31.3   2.1
Blue Diamond 5/4/26 1940 64.5   11.8 26   7 28.6   1.7 9.7   2.7 W | 278 19.1   1.5 WNW | 289 0.00 3.5   0.0 70.1   0.7 0.00 54.7   8.5 70.5   11.4 25.7   2.2
Artesian Sub 5/4/26 1940 74.2   13.0 20   7 30.1   0.3 7.2   1.1 SSE | 164 14.8   1.1 SSE | 148 0.00 13.4   0.0 73.7   0.5 0.00 65.1   2.2 80.3   12.7 24.3   0.9
North Henderson 5/4/26 1940 75.0   13.2 21   8 32.2   1.8 9.1   2.4 SW | 234 17.8   1.0 SW | 223 0.00 8.8   0.1 79.2   0.1 0.00 66.4   4.1 79.6   12.7 27.8   4.7
Sandy Valley 5/4/26 1940 65.8   12.3 32   13 34.8   3.4 10.8   0.2 W | 272 16.5   0.1 W | 281 0.00 4.6   0.1 81.8   0.8 0.00 55.0   0.6 71.4   15.2 26.3   5.1
Searchlight 5/4/26 1940 63.5   12.3 27   8 28.6   1.9 12.7   1.8 S | 170 18.0   0.0 SSE | 166 0.00 4.7   0.0 76.5   3.4 0.00 54.6   2.1 69.4   13.7 29.9   5.2
Laughlin 5/4/26 1940 78.6   13.0 23   3 37.6   6.6 16.7   0.6 SSE | 166 23.0   1.0 S | 179 0.00 4.1   0.0 84.1   0.7 0.00 71.9   3.3 82.7   14.2 28.0   7.4
Max     78.6 100 45.5 27.3 - 35.6 - 0.02 44.6 84.1 0.80 71.9 125.7 49.6
Avg     47.7 67 34.5 6.7 - 12.5 - 0.00 13.6 57.0 - - - -
Min     31.2 20 13.2 0.0 - 0.0 - 0.00 1.6 32.0 0.00 31.0 39.6 4.2